sensor_id;sensor_type;location;lat;lon;timestamp;temperature;humidity
70830;SHT30;58451;51.550;7.208;2023-07-22T00:00:24;14.87;66.55
70830;SHT30;58451;51.550;7.208;2023-07-22T00:01:57;14.87;66.38
70830;SHT30;58451;51.550;7.208;2023-07-22T00:03:29;14.87;66.28
70830;SHT30;58451;51.550;7.208;2023-07-22T00:05:01;14.89;66.25
70830;SHT30;58451;51.550;7.208;2023-07-22T00:06:33;14.89;66.37
70830;SHT30;58451;51.550;7.208;2023-07-22T00:08:04;14.89;66.33
70830;SHT30;58451;51.550;7.208;2023-07-22T00:09:36;14.89;66.45
70830;SHT30;58451;51.550;7.208;2023-07-22T00:11:10;14.89;66.50
70830;SHT30;58451;51.550;7.208;2023-07-22T00:12:42;14.90;66.48
70830;SHT30;58451;51.550;7.208;2023-07-22T00:14:14;14.90;66.68
70830;SHT30;58451;51.550;7.208;2023-07-22T00:15:45;14.90;66.50
70830;SHT30;58451;51.550;7.208;2023-07-22T00:17:17;14.90;66.45
70830;SHT30;58451;51.550;7.208;2023-07-22T00:18:49;14.91;66.45
70830;SHT30;58451;51.550;7.208;2023-07-22T00:20:21;14.91;66.55
70830;SHT30;58451;51.550;7.208;2023-07-22T00:21:53;14.90;66.93
70830;SHT30;58451;51.550;7.208;2023-07-22T00:23:25;14.91;66.67
70830;SHT30;58451;51.550;7.208;2023-07-22T00:24:57;14.92;67.17
70830;SHT30;58451;51.550;7.208;2023-07-22T00:26:31;14.90;67.05
70830;SHT30;58451;51.550;7.208;2023-07-22T00:28:03;14.91;66.78
70830;SHT30;58451;51.550;7.208;2023-07-22T00:29:38;14.90;66.68
70830;SHT30;58451;51.550;7.208;2023-07-22T00:31:10;14.91;66.70
70830;SHT30;58451;51.550;7.208;2023-07-22T00:32:42;14.91;66.65
70830;SHT30;58451;51.550;7.208;2023-07-22T00:34:14;14.91;66.78
70830;SHT30;58451;51.550;7.208;2023-07-22T00:35:47;14.91;66.85
70830;SHT30;58451;51.550;7.208;2023-07-22T00:37:22;14.92;67.22
70830;SHT30;58451;51.550;7.208;2023-07-22T00:38:53;14.90;67.15
70830;SHT30;58451;51.550;7.208;2023-07-22T00:40:25;14.90;67.12
70830;SHT30;58451;51.550;7.208;2023-07-22T00:41:57;14.91;66.88
70830;SHT30;58451;51.550;7.208;2023-07-22T00:43:29;14.90;66.83
70830;SHT30;58451;51.550;7.208;2023-07-22T00:45:01;14.91;67.02
70830;SHT30;58451;51.550;7.208;2023-07-22T00:46:32;14.92;67.17
70830;SHT30;58451;51.550;7.208;2023-07-22T00:48:05;14.91;67.27
70830;SHT30;58451;51.550;7.208;2023-07-22T00:49:39;14.92;67.60
70830;SHT30;58451;51.550;7.208;2023-07-22T00:51:11;14.91;67.45
70830;SHT30;58451;51.550;7.208;2023-07-22T00:52:42;14.92;67.20
70830;SHT30;58451;51.550;7.208;2023-07-22T00:54:15;14.93;67.08
70830;SHT30;58451;51.550;7.208;2023-07-22T00:55:47;14.93;67.02
70830;SHT30;58451;51.550;7.208;2023-07-22T00:57:19;14.94;66.93
70830;SHT30;58451;51.550;7.208;2023-07-22T00:58:53;14.94;66.92
70830;SHT30;58451;51.550;7.208;2023-07-22T01:00:25;14.94;67.73
70830;SHT30;58451;51.550;7.208;2023-07-22T01:01:57;14.92;67.82
70830;SHT30;58451;51.550;7.208;2023-07-22T01:03:29;14.92;67.22
70830;SHT30;58451;51.550;7.208;2023-07-22T01:05:01;14.92;67.52
70830;SHT30;58451;51.550;7.208;2023-07-22T01:06:34;14.93;67.53
70830;SHT30;58451;51.550;7.208;2023-07-22T01:08:06;14.93;67.22
70830;SHT30;58451;51.550;7.208;2023-07-22T01:09:39;14.92;67.05
70830;SHT30;58451;51.550;7.208;2023-07-22T01:11:13;14.93;67.20
70830;SHT30;58451;51.550;7.208;2023-07-22T01:12:45;14.93;67.25
70830;SHT30;58451;51.550;7.208;2023-07-22T01:14:17;14.94;67.07
70830;SHT30;58451;51.550;7.208;2023-07-22T01:15:49;14.93;66.93
70830;SHT30;58451;51.550;7.208;2023-07-22T01:17:21;14.93;66.95
70830;SHT30;58451;51.550;7.208;2023-07-22T01:18:54;14.92;67.00
70830;SHT30;58451;51.550;7.208;2023-07-22T01:20:27;14.92;67.13
70830;SHT30;58451;51.550;7.208;2023-07-22T01:22:02;14.93;67.25
70830;SHT30;58451;51.550;7.208;2023-07-22T01:23:37;14.91;67.08
70830;SHT30;58451;51.550;7.208;2023-07-22T01:25:10;14.91;67.17
70830;SHT30;58451;51.550;7.208;2023-07-22T01:26:43;14.91;67.30
70830;SHT30;58451;51.550;7.208;2023-07-22T01:28:15;14.90;67.72
70830;SHT30;58451;51.550;7.208;2023-07-22T01:29:49;14.90;67.50
70830;SHT30;58451;51.550;7.208;2023-07-22T01:31:23;14.89;67.47
70830;SHT30;58451;51.550;7.208;2023-07-22T01:32:54;14.88;67.73
70830;SHT30;58451;51.550;7.208;2023-07-22T01:34:27;14.88;67.32
70830;SHT30;58451;51.550;7.208;2023-07-22T01:35:59;14.88;67.20
70830;SHT30;58451;51.550;7.208;2023-07-22T01:37:32;14.88;67.20
70830;SHT30;58451;51.550;7.208;2023-07-22T01:39:04;14.87;67.12
70830;SHT30;58451;51.550;7.208;2023-07-22T01:40:37;14.86;67.12
70830;SHT30;58451;51.550;7.208;2023-07-22T01:42:09;14.86;67.07
70830;SHT30;58451;51.550;7.208;2023-07-22T01:43:41;14.87;67.10
70830;SHT30;58451;51.550;7.208;2023-07-22T01:45:13;14.87;67.10
70830;SHT30;58451;51.550;7.208;2023-07-22T01:46:44;14.87;67.10
70830;SHT30;58451;51.550;7.208;2023-07-22T01:48:16;14.88;67.15
70830;SHT30;58451;51.550;7.208;2023-07-22T01:49:48;14.87;67.23
70830;SHT30;58451;51.550;7.208;2023-07-22T01:51:20;14.86;67.32
70830;SHT30;58451;51.550;7.208;2023-07-22T01:52:52;14.87;67.25
70830;SHT30;58451;51.550;7.208;2023-07-22T01:54:24;14.87;67.20
70830;SHT30;58451;51.550;7.208;2023-07-22T01:55:55;14.87;67.17
70830;SHT30;58451;51.550;7.208;2023-07-22T01:57:27;14.88;67.18
70830;SHT30;58451;51.550;7.208;2023-07-22T01:58:59;14.88;67.20
70830;SHT30;58451;51.550;7.208;2023-07-22T02:00:31;14.88;67.12
70830;SHT30;58451;51.550;7.208;2023-07-22T02:02:03;14.88;67.33
70830;SHT30;58451;51.550;7.208;2023-07-22T02:03:35;14.89;67.18
70830;SHT30;58451;51.550;7.208;2023-07-22T02:05:08;14.89;67.12
70830;SHT30;58451;51.550;7.208;2023-07-22T02:06:44;14.89;67.07
70830;SHT30;58451;51.550;7.208;2023-07-22T02:08:16;14.89;67.03
70830;SHT30;58451;51.550;7.208;2023-07-22T02:09:48;14.89;67.02
70830;SHT30;58451;51.550;7.208;2023-07-22T02:11:23;14.89;67.08
70830;SHT30;58451;51.550;7.208;2023-07-22T02:12:55;14.90;67.12
70830;SHT30;58451;51.550;7.208;2023-07-22T02:14:27;14.90;67.32
70830;SHT30;58451;51.550;7.208;2023-07-22T02:15:59;14.90;67.13
70830;SHT30;58451;51.550;7.208;2023-07-22T02:17:32;14.90;67.05
70830;SHT30;58451;51.550;7.208;2023-07-22T02:19:05;14.90;67.02
70830;SHT30;58451;51.550;7.208;2023-07-22T02:20:43;14.90;66.97
70830;SHT30;58451;51.550;7.208;2023-07-22T02:22:15;14.90;66.97
70830;SHT30;58451;51.550;7.208;2023-07-22T02:23:47;14.90;67.12
70830;SHT30;58451;51.550;7.208;2023-07-22T02:25:20;14.90;67.03
70830;SHT30;58451;51.550;7.208;2023-07-22T02:26:51;14.89;67.08
70830;SHT30;58451;51.550;7.208;2023-07-22T02:28:24;14.88;67.15
70830;SHT30;58451;51.550;7.208;2023-07-22T02:29:56;14.89;67.02
70830;SHT30;58451;51.550;7.208;2023-07-22T02:31:28;14.89;67.37
70830;SHT30;58451;51.550;7.208;2023-07-22T02:33:00;14.88;67.22
70830;SHT30;58451;51.550;7.208;2023-07-22T02:34:32;14.89;67.45
70830;SHT30;58451;51.550;7.208;2023-07-22T02:36:04;14.88;67.28
70830;SHT30;58451;51.550;7.208;2023-07-22T02:37:37;14.88;67.15
70830;SHT30;58451;51.550;7.208;2023-07-22T02:39:10;14.88;67.50
70830;SHT30;58451;51.550;7.208;2023-07-22T02:40:42;14.88;67.48
70830;SHT30;58451;51.550;7.208;2023-07-22T02:42:14;14.89;67.32
70830;SHT30;58451;51.550;7.208;2023-07-22T02:43:46;14.88;67.23
70830;SHT30;58451;51.550;7.208;2023-07-22T02:45:18;14.89;67.20
70830;SHT30;58451;51.550;7.208;2023-07-22T02:46:50;14.90;67.23
70830;SHT30;58451;51.550;7.208;2023-07-22T02:48:21;14.90;67.20
70830;SHT30;58451;51.550;7.208;2023-07-22T02:49:53;14.91;67.20
70830;SHT30;58451;51.550;7.208;2023-07-22T02:51:25;14.91;67.13
70830;SHT30;58451;51.550;7.208;2023-07-22T02:52:57;14.93;67.17
70830;SHT30;58451;51.550;7.208;2023-07-22T02:54:29;14.93;67.15
70830;SHT30;58451;51.550;7.208;2023-07-22T02:56:01;14.94;67.25
70830;SHT30;58451;51.550;7.208;2023-07-22T02:57:34;14.96;67.38
70830;SHT30;58451;51.550;7.208;2023-07-22T02:59:06;14.96;67.42
70830;SHT30;58451;51.550;7.208;2023-07-22T03:00:40;14.97;67.32
70830;SHT30;58451;51.550;7.208;2023-07-22T03:02:12;14.98;67.40
70830;SHT30;58451;51.550;7.208;2023-07-22T03:03:45;14.99;67.45
70830;SHT30;58451;51.550;7.208;2023-07-22T03:05:17;15.00;67.42
70830;SHT30;58451;51.550;7.208;2023-07-22T03:06:49;15.02;67.38
70830;SHT30;58451;51.550;7.208;2023-07-22T03:08:21;15.02;67.38
70830;SHT30;58451;51.550;7.208;2023-07-22T03:09:53;15.04;67.42
70830;SHT30;58451;51.550;7.208;2023-07-22T03:11:24;15.05;67.43
70830;SHT30;58451;51.550;7.208;2023-07-22T03:12:56;15.06;67.52
70830;SHT30;58451;51.550;7.208;2023-07-22T03:14:28;15.08;67.70
70830;SHT30;58451;51.550;7.208;2023-07-22T03:16:00;15.08;67.90
70830;SHT30;58451;51.550;7.208;2023-07-22T03:17:36;15.08;68.08
70830;SHT30;58451;51.550;7.208;2023-07-22T03:19:08;15.08;67.73
70830;SHT30;58451;51.550;7.208;2023-07-22T03:20:41;15.09;67.67
70830;SHT30;58451;51.550;7.208;2023-07-22T03:22:14;15.10;67.57
70830;SHT30;58451;51.550;7.208;2023-07-22T03:23:53;15.10;67.52
70830;SHT30;58451;51.550;7.208;2023-07-22T03:25:25;15.09;67.55
70830;SHT30;58451;51.550;7.208;2023-07-22T03:26:57;15.10;67.50
70830;SHT30;58451;51.550;7.208;2023-07-22T03:28:29;15.10;67.48
70830;SHT30;58451;51.550;7.208;2023-07-22T03:30:01;15.11;67.58
70830;SHT30;58451;51.550;7.208;2023-07-22T03:31:42;15.09;67.97
70830;SHT30;58451;51.550;7.208;2023-07-22T03:33:14;15.10;67.97
70830;SHT30;58451;51.550;7.208;2023-07-22T03:34:46;15.10;67.78
70830;SHT30;58451;51.550;7.208;2023-07-22T03:36:18;15.14;67.77
70830;SHT30;58451;51.550;7.208;2023-07-22T03:37:50;15.15;67.78
70830;SHT30;58451;51.550;7.208;2023-07-22T03:39:22;15.15;67.68
70830;SHT30;58451;51.550;7.208;2023-07-22T03:40:53;15.17;67.83
70830;SHT30;58451;51.550;7.208;2023-07-22T03:42:25;15.19;67.62
70830;SHT30;58451;51.550;7.208;2023-07-22T03:43:57;15.20;67.45
70830;SHT30;58451;51.550;7.208;2023-07-22T03:45:29;15.23;67.47
70830;SHT30;58451;51.550;7.208;2023-07-22T03:47:01;15.23;67.38
70830;SHT30;58451;51.550;7.208;2023-07-22T03:48:34;15.27;67.48
70830;SHT30;58451;51.550;7.208;2023-07-22T03:50:06;15.27;67.48
70830;SHT30;58451;51.550;7.208;2023-07-22T03:51:39;15.28;67.53
70830;SHT30;58451;51.550;7.208;2023-07-22T03:53:11;15.29;67.40
70830;SHT30;58451;51.550;7.208;2023-07-22T03:54:43;15.33;67.23
70830;SHT30;58451;51.550;7.208;2023-07-22T03:56:15;15.33;67.15
70830;SHT30;58451;51.550;7.208;2023-07-22T03:57:47;15.36;67.07
70830;SHT30;58451;51.550;7.208;2023-07-22T03:59:19;15.36;67.12
70830;SHT30;58451;51.550;7.208;2023-07-22T04:00:51;15.37;66.97
70830;SHT30;58451;51.550;7.208;2023-07-22T04:02:23;15.39;66.93
70830;SHT30;58451;51.550;7.208;2023-07-22T04:03:56;15.39;66.98
70830;SHT30;58451;51.550;7.208;2023-07-22T04:05:28;15.41;66.87
70830;SHT30;58451;51.550;7.208;2023-07-22T04:07:00;15.41;66.70
70830;SHT30;58451;51.550;7.208;2023-07-22T04:08:32;15.42;66.67
70830;SHT30;58451;51.550;7.208;2023-07-22T04:10:04;15.44;66.67
70830;SHT30;58451;51.550;7.208;2023-07-22T04:11:37;15.44;66.60
70830;SHT30;58451;51.550;7.208;2023-07-22T04:13:09;15.47;66.57
70830;SHT30;58451;51.550;7.208;2023-07-22T04:14:41;15.47;66.53
70830;SHT30;58451;51.550;7.208;2023-07-22T04:16:12;15.48;66.53
70830;SHT30;58451;51.550;7.208;2023-07-22T04:17:44;15.48;66.52
70830;SHT30;58451;51.550;7.208;2023-07-22T04:19:16;15.51;66.40
70830;SHT30;58451;51.550;7.208;2023-07-22T04:20:49;15.52;66.33
70830;SHT30;58451;51.550;7.208;2023-07-22T04:22:28;15.55;66.30
70830;SHT30;58451;51.550;7.208;2023-07-22T04:24:03;15.56;66.22
70830;SHT30;58451;51.550;7.208;2023-07-22T04:25:39;15.57;66.18
70830;SHT30;58451;51.550;7.208;2023-07-22T04:27:15;15.58;66.13
70830;SHT30;58451;51.550;7.208;2023-07-22T04:28:47;15.60;66.07
70830;SHT30;58451;51.550;7.208;2023-07-22T04:30:19;15.63;66.00
70830;SHT30;58451;51.550;7.208;2023-07-22T04:31:56;15.65;65.95
70830;SHT30;58451;51.550;7.208;2023-07-22T04:33:30;15.68;65.90
70830;SHT30;58451;51.550;7.208;2023-07-22T04:35:02;15.69;65.82
70830;SHT30;58451;51.550;7.208;2023-07-22T04:36:34;15.69;65.63
70830;SHT30;58451;51.550;7.208;2023-07-22T04:38:08;15.71;65.55
70830;SHT30;58451;51.550;7.208;2023-07-22T04:39:40;15.73;65.47
70830;SHT30;58451;51.550;7.208;2023-07-22T04:41:12;15.76;65.25
70830;SHT30;58451;51.550;7.208;2023-07-22T04:42:44;15.78;65.10
70830;SHT30;58451;51.550;7.208;2023-07-22T04:44:18;15.81;65.03
70830;SHT30;58451;51.550;7.208;2023-07-22T04:45:51;15.85;64.90
70830;SHT30;58451;51.550;7.208;2023-07-22T04:47:23;15.88;64.75
70830;SHT30;58451;51.550;7.208;2023-07-22T04:48:55;15.91;64.50
70830;SHT30;58451;51.550;7.208;2023-07-22T04:50:29;15.92;64.23
70830;SHT30;58451;51.550;7.208;2023-07-22T04:52:01;15.96;64.43
70830;SHT30;58451;51.550;7.208;2023-07-22T04:53:33;15.99;64.40
70830;SHT30;58451;51.550;7.208;2023-07-22T04:55:05;16.00;64.15
70830;SHT30;58451;51.550;7.208;2023-07-22T04:56:41;16.02;64.17
70830;SHT30;58451;51.550;7.208;2023-07-22T04:58:13;16.05;64.12
70830;SHT30;58451;51.550;7.208;2023-07-22T04:59:45;16.07;63.87
70830;SHT30;58451;51.550;7.208;2023-07-22T05:01:17;16.11;63.85
70830;SHT30;58451;51.550;7.208;2023-07-22T05:02:49;16.15;63.90
70830;SHT30;58451;51.550;7.208;2023-07-22T05:04:23;16.19;63.85
70830;SHT30;58451;51.550;7.208;2023-07-22T05:05:55;16.23;63.48
70830;SHT30;58451;51.550;7.208;2023-07-22T05:07:29;16.26;63.38
70830;SHT30;58451;51.550;7.208;2023-07-22T05:09:02;16.30;63.53
70830;SHT30;58451;51.550;7.208;2023-07-22T05:10:36;16.36;63.43
70830;SHT30;58451;51.550;7.208;2023-07-22T05:12:09;16.41;63.37
70830;SHT30;58451;51.550;7.208;2023-07-22T05:13:41;16.45;63.23
70830;SHT30;58451;51.550;7.208;2023-07-22T05:15:13;16.49;63.12
70830;SHT30;58451;51.550;7.208;2023-07-22T05:16:45;16.52;62.85
70830;SHT30;58451;51.550;7.208;2023-07-22T05:18:17;16.55;62.87
70830;SHT30;58451;51.550;7.208;2023-07-22T05:19:49;16.58;62.85
70830;SHT30;58451;51.550;7.208;2023-07-22T05:21:21;16.61;62.87
70830;SHT30;58451;51.550;7.208;2023-07-22T05:22:52;16.65;62.17
70830;SHT30;58451;51.550;7.208;2023-07-22T05:24:24;16.65;61.90
70830;SHT30;58451;51.550;7.208;2023-07-22T05:25:56;16.69;62.23
70830;SHT30;58451;51.550;7.208;2023-07-22T05:27:28;16.74;62.25
70830;SHT30;58451;51.550;7.208;2023-07-22T05:29:00;16.78;62.02
70830;SHT30;58451;51.550;7.208;2023-07-22T05:30:32;16.82;61.87
70830;SHT30;58451;51.550;7.208;2023-07-22T05:32:07;16.87;61.75
70830;SHT30;58451;51.550;7.208;2023-07-22T05:33:58;16.94;61.68
70830;SHT30;58451;51.550;7.208;2023-07-22T05:35:30;16.98;61.60
70830;SHT30;58451;51.550;7.208;2023-07-22T05:37:01;17.03;61.32
70830;SHT30;58451;51.550;7.208;2023-07-22T05:38:33;17.06;61.20
70830;SHT30;58451;51.550;7.208;2023-07-22T05:40:05;17.08;60.90
70830;SHT30;58451;51.550;7.208;2023-07-22T05:41:38;17.11;61.00
70830;SHT30;58451;51.550;7.208;2023-07-22T05:43:12;17.12;60.70
70830;SHT30;58451;51.550;7.208;2023-07-22T05:44:44;17.14;60.68
70830;SHT30;58451;51.550;7.208;2023-07-22T05:46:15;17.17;60.83
70830;SHT30;58451;51.550;7.208;2023-07-22T05:47:48;17.22;60.53
70830;SHT30;58451;51.550;7.208;2023-07-22T05:49:20;17.25;60.42
70830;SHT30;58451;51.550;7.208;2023-07-22T05:50:52;17.24;60.48
70830;SHT30;58451;51.550;7.208;2023-07-22T05:52:24;17.23;60.48
70830;SHT30;58451;51.550;7.208;2023-07-22T05:53:56;17.22;60.02
70830;SHT30;58451;51.550;7.208;2023-07-22T05:55:28;17.18;60.02
70830;SHT30;58451;51.550;7.208;2023-07-22T05:57:00;17.21;60.08
70830;SHT30;58451;51.550;7.208;2023-07-22T05:58:32;17.29;60.08
70830;SHT30;58451;51.550;7.208;2023-07-22T06:00:04;17.35;59.83
70830;SHT30;58451;51.550;7.208;2023-07-22T06:01:43;17.42;59.80
70830;SHT30;58451;51.550;7.208;2023-07-22T06:03:15;17.49;59.58
70830;SHT30;58451;51.550;7.208;2023-07-22T06:04:48;17.56;59.45
70830;SHT30;58451;51.550;7.208;2023-07-22T06:06:20;17.64;59.50
70830;SHT30;58451;51.550;7.208;2023-07-22T06:07:55;17.72;59.28
70830;SHT30;58451;51.550;7.208;2023-07-22T06:09:28;17.78;59.08
70830;SHT30;58451;51.550;7.208;2023-07-22T06:11:00;17.85;58.72
70830;SHT30;58451;51.550;7.208;2023-07-22T06:12:32;17.86;58.23
70830;SHT30;58451;51.550;7.208;2023-07-22T06:14:04;17.89;58.32
70830;SHT30;58451;51.550;7.208;2023-07-22T06:15:36;17.94;58.80
70830;SHT30;58451;51.550;7.208;2023-07-22T06:17:08;17.97;57.67
70830;SHT30;58451;51.550;7.208;2023-07-22T06:18:40;18.00;58.18
70830;SHT30;58451;51.550;7.208;2023-07-22T06:20:12;18.02;57.87
70830;SHT30;58451;51.550;7.208;2023-07-22T06:21:44;18.06;57.93
70830;SHT30;58451;51.550;7.208;2023-07-22T06:23:15;18.05;57.07
70830;SHT30;58451;51.550;7.208;2023-07-22T06:24:47;18.07;57.47
70830;SHT30;58451;51.550;7.208;2023-07-22T06:26:19;18.06;57.48
70830;SHT30;58451;51.550;7.208;2023-07-22T06:27:53;18.05;57.70
70830;SHT30;58451;51.550;7.208;2023-07-22T06:29:26;18.01;57.52
70830;SHT30;58451;51.550;7.208;2023-07-22T06:30:58;18.00;57.65
70830;SHT30;58451;51.550;7.208;2023-07-22T06:32:30;18.06;57.82
70830;SHT30;58451;51.550;7.208;2023-07-22T06:34:02;18.10;57.73
70830;SHT30;58451;51.550;7.208;2023-07-22T06:35:34;18.11;57.77
70830;SHT30;58451;51.550;7.208;2023-07-22T06:37:06;18.13;57.53
70830;SHT30;58451;51.550;7.208;2023-07-22T06:38:38;18.15;57.52
70830;SHT30;58451;51.550;7.208;2023-07-22T06:40:10;18.20;57.77
70830;SHT30;58451;51.550;7.208;2023-07-22T06:41:42;18.29;57.82
70830;SHT30;58451;51.550;7.208;2023-07-22T06:43:14;18.34;57.57
70830;SHT30;58451;51.550;7.208;2023-07-22T06:44:46;18.37;57.38
70830;SHT30;58451;51.550;7.208;2023-07-22T06:46:18;18.44;57.42
70830;SHT30;58451;51.550;7.208;2023-07-22T06:47:50;18.49;57.35
70830;SHT30;58451;51.550;7.208;2023-07-22T06:49:22;18.52;57.45
70830;SHT30;58451;51.550;7.208;2023-07-22T06:50:54;18.60;57.58
70830;SHT30;58451;51.550;7.208;2023-07-22T06:52:26;18.67;57.42
70830;SHT30;58451;51.550;7.208;2023-07-22T06:53:58;18.74;57.45
70830;SHT30;58451;51.550;7.208;2023-07-22T06:55:30;18.83;57.15
70830;SHT30;58451;51.550;7.208;2023-07-22T06:57:02;18.83;56.83
70830;SHT30;58451;51.550;7.208;2023-07-22T06:58:34;18.86;56.70
70830;SHT30;58451;51.550;7.208;2023-07-22T07:00:06;18.89;56.55
70830;SHT30;58451;51.550;7.208;2023-07-22T07:01:41;18.97;56.52
70830;SHT30;58451;51.550;7.208;2023-07-22T07:03:13;19.04;56.37
70830;SHT30;58451;51.550;7.208;2023-07-22T07:04:45;19.09;56.53
70830;SHT30;58451;51.550;7.208;2023-07-22T07:06:17;19.16;56.17
70830;SHT30;58451;51.550;7.208;2023-07-22T07:07:49;19.20;56.08
70830;SHT30;58451;51.550;7.208;2023-07-22T07:09:21;19.25;56.20
70830;SHT30;58451;51.550;7.208;2023-07-22T07:10:53;19.36;56.30
70830;SHT30;58451;51.550;7.208;2023-07-22T07:12:27;19.47;55.70
70830;SHT30;58451;51.550;7.208;2023-07-22T07:13:59;19.57;55.27
70830;SHT30;58451;51.550;7.208;2023-07-22T07:15:31;19.62;54.92
70830;SHT30;58451;51.550;7.208;2023-07-22T07:17:03;19.65;54.28
70830;SHT30;58451;51.550;7.208;2023-07-22T07:18:35;19.70;54.50
70830;SHT30;58451;51.550;7.208;2023-07-22T07:20:07;19.78;55.07
70830;SHT30;58451;51.550;7.208;2023-07-22T07:21:40;19.83;54.82
70830;SHT30;58451;51.550;7.208;2023-07-22T07:23:12;19.86;54.73
70830;SHT30;58451;51.550;7.208;2023-07-22T07:24:45;19.83;54.63
70830;SHT30;58451;51.550;7.208;2023-07-22T07:26:17;19.78;54.30
70830;SHT30;58451;51.550;7.208;2023-07-22T07:27:49;19.78;54.68
70830;SHT30;58451;51.550;7.208;2023-07-22T07:29:21;19.82;54.13
70830;SHT30;58451;51.550;7.208;2023-07-22T07:31:13;19.81;53.67
70830;SHT30;58451;51.550;7.208;2023-07-22T07:32:45;19.77;53.95
70830;SHT30;58451;51.550;7.208;2023-07-22T07:34:17;19.79;54.00
70830;SHT30;58451;51.550;7.208;2023-07-22T07:35:49;19.86;53.68
70830;SHT30;58451;51.550;7.208;2023-07-22T07:37:22;19.92;53.10
70830;SHT30;58451;51.550;7.208;2023-07-22T07:38:54;19.93;52.98
70830;SHT30;58451;51.550;7.208;2023-07-22T07:40:26;19.93;52.88
70830;SHT30;58451;51.550;7.208;2023-07-22T07:41:58;19.98;53.00
70830;SHT30;58451;51.550;7.208;2023-07-22T07:43:30;20.06;53.07
70830;SHT30;58451;51.550;7.208;2023-07-22T07:45:02;20.20;53.23
70830;SHT30;58451;51.550;7.208;2023-07-22T07:46:34;20.27;52.45
70830;SHT30;58451;51.550;7.208;2023-07-22T07:48:06;20.32;52.07
70830;SHT30;58451;51.550;7.208;2023-07-22T07:49:40;20.37;52.23
70830;SHT30;58451;51.550;7.208;2023-07-22T07:51:15;20.45;51.77
70830;SHT30;58451;51.550;7.208;2023-07-22T07:52:49;20.50;51.53
70830;SHT30;58451;51.550;7.208;2023-07-22T07:54:20;20.50;52.17
70830;SHT30;58451;51.550;7.208;2023-07-22T07:55:52;20.54;52.30
70830;SHT30;58451;51.550;7.208;2023-07-22T07:57:24;20.50;51.62
70830;SHT30;58451;51.550;7.208;2023-07-22T07:58:56;20.51;51.80
70830;SHT30;58451;51.550;7.208;2023-07-22T08:00:28;20.60;51.78
70830;SHT30;58451;51.550;7.208;2023-07-22T08:02:00;20.68;51.40
70830;SHT30;58451;51.550;7.208;2023-07-22T08:03:32;20.80;51.23
70830;SHT30;58451;51.550;7.208;2023-07-22T08:05:07;20.93;51.60
70830;SHT30;58451;51.550;7.208;2023-07-22T08:06:39;21.07;51.63
70830;SHT30;58451;51.550;7.208;2023-07-22T08:08:11;21.21;50.43
70830;SHT30;58451;51.550;7.208;2023-07-22T08:09:43;21.34;50.28
70830;SHT30;58451;51.550;7.208;2023-07-22T08:11:15;21.44;49.67
70830;SHT30;58451;51.550;7.208;2023-07-22T08:12:47;21.51;49.48
70830;SHT30;58451;51.550;7.208;2023-07-22T08:14:19;21.54;48.93
70830;SHT30;58451;51.550;7.208;2023-07-22T08:15:51;21.68;49.42
70830;SHT30;58451;51.550;7.208;2023-07-22T08:17:24;21.81;49.55
70830;SHT30;58451;51.550;7.208;2023-07-22T08:18:56;21.94;49.12
70830;SHT30;58451;51.550;7.208;2023-07-22T08:20:28;21.92;48.22
70830;SHT30;58451;51.550;7.208;2023-07-22T08:22:00;21.98;48.42
70830;SHT30;58451;51.550;7.208;2023-07-22T08:23:33;22.08;48.65
70830;SHT30;58451;51.550;7.208;2023-07-22T08:25:06;22.13;47.65
70830;SHT30;58451;51.550;7.208;2023-07-22T08:26:39;22.18;47.70
70830;SHT30;58451;51.550;7.208;2023-07-22T08:28:11;22.21;47.70
70830;SHT30;58451;51.550;7.208;2023-07-22T08:29:43;22.21;47.48
70830;SHT30;58451;51.550;7.208;2023-07-22T08:31:15;21.99;47.40
70830;SHT30;58451;51.550;7.208;2023-07-22T08:32:47;22.16;48.15
70830;SHT30;58451;51.550;7.208;2023-07-22T08:34:19;22.29;47.98
70830;SHT30;58451;51.550;7.208;2023-07-22T08:35:51;22.44;47.62
70830;SHT30;58451;51.550;7.208;2023-07-22T08:37:23;22.58;47.47
70830;SHT30;58451;51.550;7.208;2023-07-22T08:38:55;22.67;46.72
70830;SHT30;58451;51.550;7.208;2023-07-22T08:40:32;22.72;46.47
70830;SHT30;58451;51.550;7.208;2023-07-22T08:42:06;22.82;46.63
70830;SHT30;58451;51.550;7.208;2023-07-22T08:43:40;22.98;46.10
70830;SHT30;58451;51.550;7.208;2023-07-22T08:45:16;22.91;45.30
70830;SHT30;58451;51.550;7.208;2023-07-22T08:46:48;22.98;45.65
70830;SHT30;58451;51.550;7.208;2023-07-22T08:48:31;22.82;44.72
70830;SHT30;58451;51.550;7.208;2023-07-22T08:50:07;22.87;45.68
70830;SHT30;58451;51.550;7.208;2023-07-22T08:51:41;22.94;45.15
70830;SHT30;58451;51.550;7.208;2023-07-22T08:53:13;23.00;45.47
70830;SHT30;58451;51.550;7.208;2023-07-22T08:54:44;23.12;45.40
70830;SHT30;58451;51.550;7.208;2023-07-22T08:56:17;23.23;44.88
70830;SHT30;58451;51.550;7.208;2023-07-22T08:57:50;23.32;44.87
70830;SHT30;58451;51.550;7.208;2023-07-22T08:59:24;23.31;43.85
70830;SHT30;58451;51.550;7.208;2023-07-22T09:00:56;23.32;44.23
70830;SHT30;58451;51.550;7.208;2023-07-22T09:02:29;23.30;43.45
70830;SHT30;58451;51.550;7.208;2023-07-22T09:04:03;23.16;43.58
70830;SHT30;58451;51.550;7.208;2023-07-22T09:05:36;23.16;43.67
70830;SHT30;58451;51.550;7.208;2023-07-22T09:07:10;23.21;44.28
70830;SHT30;58451;51.550;7.208;2023-07-22T09:08:43;23.32;44.37
70830;SHT30;58451;51.550;7.208;2023-07-22T09:10:17;23.51;44.82
70830;SHT30;58451;51.550;7.208;2023-07-22T09:11:51;23.68;44.17
70830;SHT30;58451;51.550;7.208;2023-07-22T09:13:24;23.79;43.67
70830;SHT30;58451;51.550;7.208;2023-07-22T09:14:58;23.87;44.28
70830;SHT30;58451;51.550;7.208;2023-07-22T09:16:30;24.03;44.02
70830;SHT30;58451;51.550;7.208;2023-07-22T09:18:04;24.14;42.68
70830;SHT30;58451;51.550;7.208;2023-07-22T09:19:36;24.10;41.37
70830;SHT30;58451;51.550;7.208;2023-07-22T09:21:08;24.08;41.55
70830;SHT30;58451;51.550;7.208;2023-07-22T09:22:50;23.99;40.80
70830;SHT30;58451;51.550;7.208;2023-07-22T09:24:42;23.77;40.27
70830;SHT30;58451;51.550;7.208;2023-07-22T09:26:15;23.71;40.23
70830;SHT30;58451;51.550;7.208;2023-07-22T09:27:51;23.69;40.82
70830;SHT30;58451;51.550;7.208;2023-07-22T09:29:34;23.75;40.85
70830;SHT30;58451;51.550;7.208;2023-07-22T09:31:09;23.88;40.95
70830;SHT30;58451;51.550;7.208;2023-07-22T09:32:41;23.95;41.05
70830;SHT30;58451;51.550;7.208;2023-07-22T09:34:13;23.91;40.73
70830;SHT30;58451;51.550;7.208;2023-07-22T09:35:45;23.80;40.43
70830;SHT30;58451;51.550;7.208;2023-07-22T09:37:19;23.66;40.73
70830;SHT30;58451;51.550;7.208;2023-07-22T09:38:58;23.51;40.88
70830;SHT30;58451;51.550;7.208;2023-07-22T09:40:34;23.39;41.45
70830;SHT30;58451;51.550;7.208;2023-07-22T09:42:06;23.33;41.48
70830;SHT30;58451;51.550;7.208;2023-07-22T09:43:40;23.32;41.67
70830;SHT30;58451;51.550;7.208;2023-07-22T09:45:12;23.45;41.48